Yeso, New Mexico
Current Conditions -  °F | °C
As of 5:56 PM on Friday 19 Dec 2014 (Local Time) from K4MR Reporting Station
Clear Clear  
Wind Chill: 34°   Ceiling: Unl
Heat Index: 34°   Visibility: 10mi
Dew Point: 24°   Wind: 3mph
Humidity: 66%   Direction: 180°S
Pressure: 30.1"   Gusts: NA
Location:  34.44°N, 104.61°W
Report Text: K4MR 200056Z AUTO 18003KT 10SM CLR 01/M05 A3010 RMK AO2 SLP205 T00121046
Loading
Personal Weather Stations






























Interactive Weather Map New forecast layout! Learn more

10-Day Weather Forecast

Advertisements
Track Severe Weather on mobile